Main page
METAR-TAF:

METAR-TAF

Airports :

Abdelhafid Boussouf Bou Chekif Airport

Tiaret, Algeria

latitude: 35-15N, longitude: 001-26E, elevation: 1127 m

Current weather observation

The report was made 55 minutes ago, at 04:00 UTC
Calm wind
Temperature -1°C
Humidity 64%
Pressure 1020 hPa
Visibility 10 km or more
no clouds below 1500 m and no cumulonimbus

METAR: DAOB 160400Z 00000KT CAVOK M01/M07 Q1020

Time: 05:55 (04:55 UTC)

Forecast

The report was made 5 hours and 55 minutes ago, at 23:00 UTC
Forecast valid from 16 at 00 UTC to 16 at 24 UTC
Wind 6 kt from the Southwest
Visibility 10 km or more
no clouds below 1500 m and no cumulonimbus

TAF: DAOB 152300Z 1600/1624 22006KT CAVOK

Weather observations and forecasts of more than 4000 airports (METAR and TAF reports).

The available stations are represented by yellow and red dots on the map.

Hover mouse over dot to see the name of the station.

Then click to see weather observations and forecasts.

To change the map : click on the green buttons with a black cross to zoom in, on the green button with a dash to zoom out, or on the green arrows for adjacent maps.


METAR-TAF: